Time;durP1;ratioP1;P1;durP2;ratioP2;P2;SDS_P1;SDS_P2;PMS_P1;PMS_P2;Temp;Humidity;BMP_temperature;BMP_pressure;BME280_temperature;BME280_humidity;BME280_pressure;Samples;Min_cycle;Max_cycle;Signal;HPM_P1;HPM_P2
2023/09/07 00:01:55;;;;;;;6.85;4.30;;;20.90;99.90;;;;;;5091840;28;20402;-76
2023/09/07 00:04:22;;;;;;;6.65;4.10;;;21.00;99.90;;;;;;5092109;28;20436;-76
2023/09/07 00:06:51;;;;;;;7.43;3.83;;;20.90;99.90;;;;;;5091653;28;20822;-76
2023/09/07 00:09:21;;;;;;;7.60;4.45;;;21.00;99.90;;;;;;5108245;28;20401;-76
2023/09/07 00:11:48;;;;;;;5.90;4.32;;;20.90;99.90;;;;;;5091726;28;20417;-77
2023/09/07 00:14:14;;;;;;;5.00;3.90;;;21.00;99.90;;;;;;5108339;28;20426;-77
2023/09/07 00:16:39;;;;;;;6.38;4.10;;;20.80;99.90;;;;;;5091724;28;20451;-75
2023/09/07 00:19:05;;;;;;;6.75;4.60;;;20.70;99.90;;;;;;5108248;28;20489;-75
2023/09/07 00:21:31;;;;;;;7.78;4.25;;;20.70;99.90;;;;;;5091161;28;20455;-76
2023/09/07 00:23:57;;;;;;;5.33;3.57;;;20.80;99.90;;;;;;5108294;28;20394;-76
2023/09/07 00:26:23;;;;;;;7.65;3.88;;;20.80;99.90;;;;;;5108412;28;20435;-76
2023/09/07 00:28:48;;;;;;;6.93;3.80;;;20.70;99.90;;;;;;5091524;28;20492;-76
2023/09/07 00:31:14;;;;;;;6.25;3.97;;;20.60;99.90;;;;;;5125601;28;20928;-75
2023/09/07 00:33:40;;;;;;;6.37;4.13;;;20.60;99.90;;;;;;5074264;28;20505;-76
2023/09/07 00:36:06;;;;;;;6.77;4.20;;;20.80;99.90;;;;;;5091189;28;20460;-76
2023/09/07 00:38:31;;;;;;;6.20;3.88;;;20.90;99.90;;;;;;5074828;28;21015;-75
2023/09/07 00:40:57;;;;;;;5.93;4.20;;;20.70;99.90;;;;;;5107830;28;20394;-74
2023/09/07 00:43:23;;;;;;;6.53;4.00;;;20.30;99.90;;;;;;5090795;28;20754;-76
2023/09/07 00:45:49;;;;;;;6.18;4.10;;;20.60;99.90;;;;;;5091169;28;20402;-75
2023/09/07 00:48:16;;;;;;;8.98;4.38;;;20.40;99.90;;;;;;5091177;28;20398;-76
2023/09/07 00:50:43;;;;;;;8.25;4.15;;;20.90;99.90;;;;;;5074560;28;20406;-76
2023/09/07 00:53:11;;;;;;;5.68;3.60;;;20.50;99.90;;;;;;5090976;28;20421;-76
2023/09/07 00:55:37;;;;;;;5.95;3.72;;;20.30;99.90;;;;;;5108126;28;20928;-76
2023/09/07 00:58:04;;;;;;;6.35;4.13;;;20.40;99.90;;;;;;5125127;27;20447;-75
2023/09/07 01:00:30;;;;;;;5.00;4.00;;;20.20;99.90;;;;;;5091098;28;20470;-75
2023/09/07 01:02:56;;;;;;;6.47;4.17;;;20.20;99.90;;;;;;5074406;28;20406;-75
2023/09/07 01:05:30;;;;;;;6.97;4.17;;;20.10;99.90;;;;;;5125030;28;20934;-75
2023/09/07 01:08:03;;;;;;;6.88;4.45;;;20.20;99.90;;;;;;5076627;28;20406;-75
2023/09/07 01:10:29;;;;;;;6.13;4.40;;;20.60;99.90;;;;;;5129236;27;20401;-75
2023/09/07 01:12:54;;;;;;;6.13;4.00;;;20.10;99.90;;;;;;5111626;28;20440;-74
2023/09/07 01:15:20;;;;;;;6.63;4.30;;;20.00;99.90;;;;;;5094774;28;20857;-77
2023/09/07 01:17:47;;;;;;;6.27;4.50;;;19.80;99.90;;;;;;5111740;28;20398;-76
2023/09/07 01:20:13;;;;;;;6.40;4.18;;;19.90;99.90;;;;;;5128835;27;20395;-77
2023/09/07 01:22:40;;;;;;;7.17;4.33;;;19.90;99.90;;;;;;5095604;28;20405;-76
2023/09/07 01:25:07;;;;;;;8.55;4.60;;;20.10;99.90;;;;;;5077613;28;20409;-76
2023/09/07 01:27:33;;;;;;;8.13;4.70;;;19.80;99.90;;;;;;5111486;28;20405;-76
2023/09/07 01:29:59;;;;;;;5.13;4.20;;;19.70;99.90;;;;;;5128525;27;20498;-75
2023/09/07 01:32:26;;;;;;;7.37;5.00;;;19.80;99.90;;;;;;5094492;28;20443;-75
2023/09/07 01:34:57;;;;;;;7.80;4.78;;;19.80;99.90;;;;;;5094240;28;20394;-76
2023/09/07 01:37:23;;;;;;;7.10;4.70;;;19.60;99.90;;;;;;5128583;27;20913;-75
2023/09/07 01:39:49;;;;;;;6.93;5.03;;;19.80;99.90;;;;;;5128523;27;20450;-76
2023/09/07 01:42:14;;;;;;;7.07;5.03;;;19.80;99.90;;;;;;5094550;28;20750;-76
2023/09/07 01:44:40;;;;;;;5.35;4.55;;;19.60;99.90;;;;;;5111393;28;20405;-76
2023/09/07 01:47:06;;;;;;;7.38;4.82;;;19.40;99.90;;;;;;5110882;28;20405;-76
2023/09/07 01:49:32;;;;;;;5.63;4.53;;;19.40;99.90;;;;;;5111309;28;20402;-76
2023/09/07 01:51:57;;;;;;;9.60;4.93;;;19.30;99.90;;;;;;5111396;28;20402;-76
2023/09/07 01:54:25;;;;;;;7.50;4.90;;;19.40;99.90;;;;;;5093534;28;20437;-76
2023/09/07 01:56:50;;;;;;;8.20;5.23;;;19.80;99.90;;;;;;5094100;28;20406;-76
2023/09/07 01:59:16;;;;;;;7.30;5.23;;;19.40;99.90;;;;;;5110485;28;20471;-76
2023/09/07 02:01:42;;;;;;;6.88;5.05;;;19.40;99.90;;;;;;5111404;28;20394;-75
2023/09/07 02:04:08;;;;;;;6.88;5.00;;;19.20;99.90;;;;;;5110520;28;20816;-76
2023/09/07 02:06:33;;;;;;;8.17;5.80;;;19.20;99.90;;;;;;5093938;28;20441;-76
2023/09/07 02:08:59;;;;;;;8.20;5.55;;;19.20;99.90;;;;;;5128449;27;20398;-76
2023/09/07 02:11:25;;;;;;;7.32;5.40;;;19.00;99.90;;;;;;5093781;28;20405;-75
2023/09/07 02:13:50;;;;;;;7.30;5.50;;;18.90;99.90;;;;;;5109864;28;20454;-76
2023/09/07 02:16:16;;;;;;;7.63;5.35;;;19.10;99.90;;;;;;5110749;28;20393;-75
2023/09/07 02:18:45;;;;;;;7.85;5.20;;;19.20;99.90;;;;;;5109349;28;20901;-75
2023/09/07 02:21:11;;;;;;;7.50;5.20;;;18.90;99.90;;;;;;5093591;28;20390;-75
2023/09/07 02:23:37;;;;;;;8.13;5.78;;;18.90;99.90;;;;;;5111028;28;20912;-75
2023/09/07 02:26:03;;;;;;;7.55;5.72;;;19.00;99.90;;;;;;5094979;28;20395;-75
2023/09/07 02:28:29;;;;;;;7.50;5.50;;;19.10;99.90;;;;;;5093337;28;20412;-76
2023/09/07 02:31:02;;;;;;;7.47;5.13;;;18.90;99.90;;;;;;5076778;28;20428;-75
2023/09/07 02:33:28;;;;;;;7.47;5.40;;;18.90;99.90;;;;;;5126916;27;20483;-76
2023/09/07 02:35:54;;;;;;;10.80;5.93;;;18.90;99.90;;;;;;5110217;28;20406;-75
2023/09/07 02:38:20;;;;;;;7.35;5.63;;;18.70;99.90;;;;;;5127081;27;20402;-76
2023/09/07 02:40:45;;;;;;;7.40;6.00;;;18.80;99.90;;;;;;5127152;27;20390;-75
2023/09/07 02:43:11;;;;;;;8.90;5.97;;;18.70;99.90;;;;;;5109795;28;20796;-76
2023/09/07 02:45:38;;;;;;;6.93;6.22;;;18.50;99.90;;;;;;5093265;28;20397;-76
2023/09/07 02:48:04;;;;;;;7.43;6.32;;;18.40;99.90;;;;;;5093161;28;20406;-75
2023/09/07 02:50:32;;;;;;;9.23;6.55;;;18.40;99.90;;;;;;5092605;28;20406;-76
2023/09/07 02:52:58;;;;;;;9.10;6.57;;;18.30;99.90;;;;;;5092835;28;20505;-74
2023/09/07 02:55:24;;;;;;;10.33;6.87;;;18.30;99.90;;;;;;5075251;28;20430;-76
2023/09/07 02:57:49;;;;;;;11.30;6.93;;;18.50;99.90;;;;;;5092751;28;20409;-75
2023/09/07 03:00:17;;;;;;;9.70;6.90;;;18.20;99.90;;;;;;5108799;28;20579;-76
2023/09/07 03:02:43;;;;;;;8.82;6.82;;;18.40;99.90;;;;;;5109385;28;20402;-75
2023/09/07 03:05:09;;;;;;;11.23;7.30;;;18.20;99.90;;;;;;5109213;28;20398;-76
2023/09/07 03:07:35;;;;;;;11.40;7.50;;;18.20;99.90;;;;;;5109213;28;20420;-76
2023/09/07 03:10:01;;;;;;;9.87;7.23;;;18.00;99.90;;;;;;5092532;28;20894;-76
2023/09/07 03:12:27;;;;;;;9.30;7.83;;;18.20;99.90;;;;;;5092142;28;20473;-75
2023/09/07 03:14:53;;;;;;;10.30;8.10;;;18.10;99.90;;;;;;5092146;28;20410;-75
2023/09/07 03:17:20;;;;;;;9.00;7.60;;;18.10;99.90;;;;;;5075685;28;20393;-73
2023/09/07 03:19:47;;;;;;;10.57;8.00;;;18.00;99.90;;;;;;5091659;28;20400;-75
2023/09/07 03:22:13;;;;;;;9.07;7.60;;;18.00;99.90;;;;;;5109262;28;20398;-75
2023/09/07 03:24:39;;;;;;;11.38;8.05;;;18.00;99.90;;;;;;5092406;28;20402;-75
2023/09/07 03:27:08;;;;;;;10.88;8.23;;;18.00;99.90;;;;;;5092578;28;20402;-76
2023/09/07 03:29:35;;;;;;;9.43;8.32;;;18.10;99.90;;;;;;5108137;28;20496;-76
2023/09/07 03:32:01;;;;;;;12.10;8.25;;;17.80;99.90;;;;;;5092007;28;20398;-76
2023/09/07 03:34:27;;;;;;;10.20;8.68;;;18.00;99.90;;;;;;5125703;27;20422;-76
2023/09/07 03:36:52;;;;;;;10.38;8.43;;;17.80;99.90;;;;;;5109270;28;20408;-75
2023/09/07 03:39:24;;;;;;;11.30;8.70;;;17.90;99.90;;;;;;5108585;28;20398;-75
2023/09/07 03:41:49;;;;;;;13.35;8.85;;;16.90;99.90;;;;;;5109274;28;20402;-76
2023/09/07 03:44:15;;;;;;;10.70;8.55;;;17.80;99.90;;;;;;5092090;28;20924;-75
2023/09/07 03:46:41;;;;;;;10.00;8.60;;;17.80;99.90;;;;;;5108410;28;20513;-75
2023/09/07 03:49:07;;;;;;;10.98;8.88;;;17.70;99.90;;;;;;5091876;28;20560;-75
2023/09/07 03:51:33;;;;;;;9.30;8.30;;;17.70;99.90;;;;;;5091401;28;20870;-75
2023/09/07 03:53:59;;;;;;;11.30;8.38;;;17.90;99.90;;;;;;5108177;28;20897;-76
2023/09/07 03:56:26;;;;;;;10.63;9.05;;;17.90;99.90;;;;;;5108697;28;20929;-75
2023/09/07 03:58:52;;;;;;;10.45;9.30;;;17.70;99.90;;;;;;5108539;28;20394;-76
2023/09/07 04:01:18;;;;;;;11.47;9.70;;;17.90;99.90;;;;;;5091638;28;20809;-76
2023/09/07 04:03:43;;;;;;;12.13;9.02;;;17.60;99.90;;;;;;5108623;28;20402;-75
2023/09/07 04:06:09;;;;;;;12.25;9.25;;;17.80;99.90;;;;;;5091467;28;20433;-75
2023/09/07 04:08:35;;;;;;;11.70;9.25;;;17.60;99.90;;;;;;5108888;28;20435;-74
2023/09/07 04:11:05;;;;;;;12.48;9.43;;;17.80;99.90;;;;;;5108020;28;20398;-76
2023/09/07 04:13:31;;;;;;;11.88;9.50;;;17.10;99.90;;;;;;5091456;28;20476;-76
2023/09/07 04:15:57;;;;;;;11.45;9.63;;;17.50;99.90;;;;;;5126074;27;20615;-76
2023/09/07 04:18:22;;;;;;;12.37;9.83;;;17.20;99.90;;;;;;5125527;27;20390;-76
2023/09/07 04:20:48;;;;;;;11.53;9.60;;;17.40;99.90;;;;;;5108599;28;20904;-76
2023/09/07 04:23:14;;;;;;;12.35;9.50;;;17.50;99.90;;;;;;5091962;28;20400;-76
2023/09/07 04:25:39;;;;;;;12.15;9.55;;;17.20;99.90;;;;;;5108652;28;20793;-76
2023/09/07 04:28:08;;;;;;;9.93;8.60;;;17.10;99.90;;;;;;5108894;28;20386;-76
2023/09/07 04:30:38;;;;;;;11.02;8.65;;;17.20;99.90;;;;;;5108752;28;20409;-76
2023/09/07 04:33:04;;;;;;;10.07;8.73;;;17.00;99.90;;;;;;5074503;28;20418;-75
2023/09/07 04:35:31;;;;;;;10.57;9.10;;;17.10;99.90;;;;;;5125510;28;20455;-75
2023/09/07 04:37:57;;;;;;;11.00;8.88;;;17.40;99.90;;;;;;5124926;27;20501;-76
2023/09/07 04:40:24;;;;;;;12.27;8.30;;;17.20;99.90;;;;;;5108363;28;20429;-76
2023/09/07 04:42:50;;;;;;;10.80;8.45;;;17.30;99.90;;;;;;5093988;28;20431;-76
2023/09/07 04:45:16;;;;;;;11.30;8.63;;;17.20;99.90;;;;;;5112948;28;20474;-76
2023/09/07 04:47:42;;;;;;;11.40;8.10;;;17.10;99.90;;;;;;5113041;28;20394;-76
2023/09/07 04:50:08;;;;;;;11.53;8.27;;;17.20;99.90;;;;;;5112744;28;20409;-77
2023/09/07 04:52:34;;;;;;;10.80;8.00;;;17.10;99.90;;;;;;5129325;27;20462;-76
2023/09/07 04:55:00;;;;;;;12.95;8.40;;;17.10;99.90;;;;;;5112887;28;20402;-76
2023/09/07 04:57:26;;;;;;;12.65;8.48;;;17.20;99.90;;;;;;5129740;27;20402;-76
2023/09/07 04:59:52;;;;;;;12.27;8.63;;;17.30;99.90;;;;;;5112069;28;20774;-75
2023/09/07 05:02:18;;;;;;;11.88;8.50;;;17.20;99.90;;;;;;5111976;28;20404;-75
2023/09/07 05:04:44;;;;;;;9.10;7.90;;;17.10;99.90;;;;;;5129018;27;20894;-77
2023/09/07 05:07:10;;;;;;;11.40;8.33;;;17.10;99.90;;;;;;5096099;28;20485;-77
2023/09/07 05:09:36;;;;;;;10.63;8.33;;;17.10;99.90;;;;;;5112094;28;20497;-77
2023/09/07 05:12:02;;;;;;;10.07;8.23;;;17.20;99.90;;;;;;5112242;28;20746;-76
2023/09/07 05:14:29;;;;;;;11.23;8.18;;;17.20;99.90;;;;;;5111780;28;20421;-77
2023/09/07 05:16:56;;;;;;;10.80;8.30;;;17.20;99.90;;;;;;5095048;28;20412;-75
2023/09/07 05:19:22;;;;;;;11.27;8.45;;;17.30;99.90;;;;;;5094623;28;20394;-76
2023/09/07 05:21:48;;;;;;;9.45;8.23;;;17.20;99.90;;;;;;5111659;28;20475;-76
2023/09/07 05:24:15;;;;;;;10.30;8.10;;;17.30;99.90;;;;;;5077908;28;20901;-76
2023/09/07 05:26:43;;;;;;;11.13;8.63;;;17.50;99.90;;;;;;5111013;28;20489;-76
2023/09/07 05:29:08;;;;;;;13.05;8.38;;;17.10;99.90;;;;;;5110890;28;20412;-77
2023/09/07 05:31:34;;;;;;;10.30;8.40;;;17.20;99.90;;;;;;5129467;27;20401;-76
2023/09/07 05:34:00;;;;;;;10.00;8.32;;;17.20;99.90;;;;;;5094763;28;20424;-77
2023/09/07 05:36:27;;;;;;;9.63;7.80;;;17.30;99.90;;;;;;5111811;28;20749;-77
2023/09/07 05:38:53;;;;;;;10.48;8.23;;;17.30;99.90;;;;;;5094534;28;20894;-77
2023/09/07 05:41:19;;;;;;;11.05;7.63;;;17.70;99.90;;;;;;5128384;27;20481;-76
2023/09/07 05:43:45;;;;;;;9.85;7.47;;;17.50;99.90;;;;;;5094132;28;20429;-76
2023/09/07 05:46:10;;;;;;;8.90;7.32;;;17.50;99.90;;;;;;5111430;28;20405;-76
2023/09/07 05:48:36;;;;;;;10.50;6.90;;;17.60;99.90;;;;;;5111379;28;20477;-77
2023/09/07 05:51:02;;;;;;;8.53;7.13;;;17.70;99.90;;;;;;5108750;28;20420;-84
2023/09/07 05:53:27;;;;;;;9.00;6.93;;;18.00;99.90;;;;;;5116059;28;20422;-85
2023/09/07 05:55:53;;;;;;;11.05;7.43;;;18.10;99.90;;;;;;5128860;27;20398;-85
2023/09/07 05:58:19;;;;;;;9.93;7.25;;;18.20;99.90;;;;;;5111869;28;20935;-85
2023/09/07 06:00:45;;;;;;;10.67;7.00;;;18.30;99.90;;;;;;5111150;28;20487;-85
2023/09/07 06:03:11;;;;;;;8.73;7.00;;;19.50;99.90;;;;;;5111512;28;20398;-84
2023/09/07 06:05:38;;;;;;;12.20;7.15;;;18.60;99.90;;;;;;5111789;28;20401;-84
2023/09/07 06:08:06;;;;;;;14.20;7.20;;;18.60;99.90;;;;;;5094503;28;20402;-84
2023/09/07 06:10:32;;;;;;;9.53;7.27;;;18.90;99.90;;;;;;5093864;28;20406;-84
2023/09/07 06:12:58;;;;;;;12.30;7.10;;;18.90;99.90;;;;;;5094954;28;20414;-85
2023/09/07 06:15:24;;;;;;;10.80;6.63;;;19.00;99.90;;;;;;5111937;28;20793;-85
2023/09/07 06:17:49;;;;;;;10.13;6.57;;;19.30;99.90;;;;;;5128789;27;20439;-86
2023/09/07 06:20:15;;;;;;;10.57;6.53;;;19.10;99.90;;;;;;5127993;27;20394;-85
2023/09/07 06:22:41;;;;;;;12.13;6.53;;;19.20;99.90;;;;;;5094944;28;20494;-85
2023/09/07 06:25:07;;;;;;;10.82;6.72;;;19.40;99.90;;;;;;5095285;28;20875;-85
2023/09/07 06:27:33;;;;;;;8.88;6.68;;;19.70;99.90;;;;;;5103845;28;20406;-84
2023/09/07 06:29:59;;;;;;;11.80;6.85;;;19.40;99.90;;;;;;5100870;28;20429;-85
2023/09/07 06:32:24;;;;;;;8.82;6.57;;;19.70;99.90;;;;;;5094610;28;20425;-85
2023/09/07 06:34:50;;;;;;;10.13;6.20;;;19.70;99.90;;;;;;5093916;28;20453;-85
2023/09/07 06:37:17;;;;;;;11.10;6.50;;;19.70;99.90;;;;;;5094217;28;20515;-85
2023/09/07 06:39:43;;;;;;;10.60;6.47;;;20.00;99.90;;;;;;5093025;28;20482;-84
2023/09/07 06:42:12;;;;;;;11.13;6.50;;;20.00;99.90;;;;;;5110706;28;20489;-85
2023/09/07 06:44:38;;;;;;;10.48;6.43;;;20.00;99.90;;;;;;5110645;28;20412;-85
2023/09/07 06:47:04;;;;;;;8.85;6.10;;;20.00;99.90;;;;;;5110535;28;20566;-85
2023/09/07 06:49:32;;;;;;;8.05;6.10;;;20.20;99.90;;;;;;5111000;28;20430;-85
2023/09/07 06:51:58;;;;;;;7.85;6.10;;;20.30;99.90;;;;;;5111145;28;20467;-85
2023/09/07 06:54:24;;;;;;;8.77;6.50;;;20.20;99.90;;;;;;5093467;28;20426;-85
2023/09/07 06:56:50;;;;;;;9.13;6.60;;;20.30;99.90;;;;;;5094028;28;20398;-85
2023/09/07 06:59:16;;;;;;;7.45;6.20;;;20.60;99.90;;;;;;5111161;28;20404;-85
2023/09/07 07:01:42;;;;;;;9.88;6.50;;;20.50;99.90;;;;;;5093357;28;20425;-85
2023/09/07 07:04:08;;;;;;;10.10;6.32;;;20.90;99.90;;;;;;5110489;28;20406;-85
2023/09/07 07:06:34;;;;;;;8.45;6.53;;;20.80;99.90;;;;;;5075602;28;20493;-83
2023/09/07 07:09:00;;;;;;;8.97;6.70;;;21.00;99.90;;;;;;5110294;28;20864;-84
2023/09/07 07:11:25;;;;;;;11.15;6.32;;;21.30;99.90;;;;;;5092649;28;20504;-77
2023/09/07 07:13:51;;;;;;;7.97;5.97;;;21.00;99.90;;;;;;5108943;28;20940;-76
2023/09/07 07:16:17;;;;;;;9.27;6.43;;;21.10;99.90;;;;;;5075275;28;20802;-76
2023/09/07 07:18:43;;;;;;;7.72;6.20;;;21.30;99.90;;;;;;5125894;27;20772;-76
2023/09/07 07:21:09;;;;;;;9.60;6.15;;;21.40;99.90;;;;;;5108952;28;20398;-76
2023/09/07 07:23:35;;;;;;;9.23;6.00;;;21.60;99.90;;;;;;5108979;28;20409;-76
2023/09/07 07:26:01;;;;;;;8.15;5.82;;;21.70;99.90;;;;;;5109069;28;20438;-76
2023/09/07 07:28:26;;;;;;;8.88;5.85;;;22.10;99.90;;;;;;5108886;28;20507;-75
2023/09/07 07:30:53;;;;;;;10.52;6.30;;;22.40;99.90;;;;;;5108488;28;20901;-76
2023/09/07 07:33:19;;;;;;;10.93;5.90;;;22.00;99.90;;;;;;5091472;28;20597;-77
2023/09/07 07:35:45;;;;;;;8.50;5.77;;;22.30;99.90;;;;;;5091955;28;20481;-77
2023/09/07 07:38:13;;;;;;;7.50;5.80;;;22.40;99.90;;;;;;5091508;28;20394;-76
2023/09/07 07:40:39;;;;;;;8.20;5.38;;;22.30;99.90;;;;;;5108353;28;20405;-76
2023/09/07 07:43:06;;;;;;;9.57;6.10;;;22.50;99.90;;;;;;5108435;28;20405;-76
2023/09/07 07:45:36;;;;;;;9.23;5.70;;;22.20;99.90;;;;;;5091262;28;20399;-76
2023/09/07 07:48:02;;;;;;;8.50;5.53;;;22.60;99.90;;;;;;5107658;28;20424;-76
2023/09/07 07:50:27;;;;;;;9.43;5.45;;;22.30;99.90;;;;;;5091095;28;21191;-76
2023/09/07 07:52:53;;;;;;;10.53;5.67;;;22.70;99.90;;;;;;5107943;28;20429;-76
2023/09/07 07:55:19;;;;;;;6.97;5.25;;;22.80;99.90;;;;;;5124804;27;20398;-77
2023/09/07 07:57:45;;;;;;;6.40;5.35;;;22.50;99.90;;;;;;5092049;28;20397;-84
2023/09/07 08:00:11;;;;;;;10.00;5.10;;;22.70;99.90;;;;;;5092079;28;20793;-84
2023/09/07 08:02:37;;;;;;;7.45;5.18;;;23.10;99.90;;;;;;5128318;27;20398;-83
2023/09/07 08:05:04;;;;;;;6.22;4.90;;;23.40;99.90;;;;;;5103274;28;20905;-85
2023/09/07 08:07:30;;;;;;;7.33;4.90;;;23.50;99.90;;;;;;5109557;28;20394;-85
2023/09/07 08:09:55;;;;;;;7.50;5.00;;;23.50;99.90;;;;;;5075271;28;20421;-85
2023/09/07 08:12:21;;;;;;;9.60;5.10;;;23.60;99.90;;;;;;5126071;27;20386;-84
2023/09/07 08:14:47;;;;;;;9.83;4.80;;;23.80;99.90;;;;;;5109117;28;20483;-84
2023/09/07 08:17:12;;;;;;;11.00;4.93;;;24.00;99.90;;;;;;5110314;28;20510;-84
2023/09/07 08:19:38;;;;;;;7.32;4.70;;;24.20;99.90;;;;;;5095506;28;20459;-85
2023/09/07 08:22:06;;;;;;;5.47;4.20;;;24.40;99.90;;;;;;5113366;28;20402;-85
2023/09/07 08:24:32;;;;;;;10.15;4.93;;;24.70;99.90;;;;;;5078931;28;20916;-84
2023/09/07 08:26:59;;;;;;;6.85;4.50;;;24.60;99.90;;;;;;5096508;28;20769;-85
2023/09/07 08:29:26;;;;;;;10.75;4.80;;;24.60;99.90;;;;;;5113793;28;20406;-85
2023/09/07 08:31:53;;;;;;;6.93;4.38;;;24.80;99.90;;;;;;5113316;28;20409;-84
2023/09/07 08:34:21;;;;;;;9.13;4.47;;;24.60;99.90;;;;;;5112549;28;20461;-85
2023/09/07 08:36:49;;;;;;;6.43;4.03;;;24.80;99.90;;;;;;5130367;27;20402;-85
2023/09/07 08:39:16;;;;;;;5.65;3.95;;;25.20;99.90;;;;;;5096340;28;20423;-84
2023/09/07 08:41:44;;;;;;;7.75;4.15;;;25.60;99.90;;;;;;5130854;27;20494;-86
2023/09/07 08:44:10;;;;;;;7.07;4.30;;;25.30;99.90;;;;;;5112915;28;20393;-85
2023/09/07 08:46:40;;;;;;;8.27;4.53;;;25.10;99.90;;;;;;5095406;28;20437;-84
2023/09/07 08:49:06;;;;;;;5.57;3.90;;;25.00;99.90;;;;;;5095373;28;20393;-85
2023/09/07 08:51:32;;;;;;;6.95;4.13;;;25.10;99.90;;;;;;5130109;27;20421;-85
2023/09/07 08:53:58;;;;;;;7.03;4.20;;;25.10;99.90;;;;;;5113635;28;20422;-85
2023/09/07 08:56:25;;;;;;;7.90;4.37;;;25.30;99.90;;;;;;5113550;28;20481;-85
2023/09/07 08:58:50;;;;;;;6.78;4.10;;;25.30;99.90;;;;;;5112388;28;20451;-85
2023/09/07 09:01:17;;;;;;;6.23;3.93;;;25.50;99.90;;;;;;5095292;28;20401;-85
2023/09/07 09:03:43;;;;;;;6.25;4.05;;;25.50;99.90;;;;;;5124849;28;20485;-83
2023/09/07 09:06:14;;;;;;;6.13;3.80;;;25.50;99.90;;;;;;5117580;28;20401;-85
2023/09/07 09:08:52;;;;;;;10.70;4.28;;;25.00;99.90;;;;;;5107731;28;20534;-86
2023/09/07 09:11:19;;;;;;;6.65;3.95;;;26.10;99.90;;;;;;5095722;28;20397;-84
2023/09/07 09:13:45;;;;;;;6.93;4.13;;;26.50;99.90;;;;;;5095786;28;20512;-84
2023/09/07 09:16:14;;;;;;;6.82;4.18;;;26.90;99.90;;;;;;5078754;28;20406;-84
2023/09/07 09:18:52;;;;;;;5.93;4.00;;;26.70;99.90;;;;;;5111751;28;20398;-83
2023/09/07 09:21:22;;;;;;;6.72;4.47;;;26.90;99.90;;;;;;5124350;28;20382;-84
2023/09/07 09:23:53;;;;;;;6.43;4.10;;;27.10;99.90;;;;;;5110017;28;20901;-77
2023/09/07 09:26:19;;;;;;;6.20;3.83;;;27.20;99.90;;;;;;5094413;28;20441;-77
2023/09/07 09:28:46;;;;;;;9.15;4.10;;;27.10;99.90;;;;;;5127363;27;20921;-77
2023/09/07 09:31:12;;;;;;;12.20;4.30;;;27.10;99.90;;;;;;5094998;28;20402;-76
2023/09/07 09:33:47;;;;;;;5.05;3.60;;;27.30;99.90;;;;;;5129151;27;20444;-76
2023/09/07 09:36:13;;;;;;;6.32;3.50;;;27.30;99.90;;;;;;5128147;27;20402;-76
2023/09/07 09:38:39;;;;;;;7.55;4.03;;;27.50;99.90;;;;;;5111181;28;20742;-77
2023/09/07 09:41:06;;;;;;;7.45;3.83;;;27.20;99.90;;;;;;5093720;28;20398;-75
2023/09/07 09:43:32;;;;;;;8.60;3.90;;;27.00;99.90;;;;;;5077139;28;20402;-77
2023/09/07 09:45:59;;;;;;;6.30;4.30;;;27.00;99.90;;;;;;5111658;28;20413;-76
2023/09/07 09:48:27;;;;;;;7.22;3.92;;;27.20;99.90;;;;;;5094507;28;20402;-76
2023/09/07 09:50:53;;;;;;;7.90;3.92;;;27.40;99.90;;;;;;5076778;28;20921;-76
2023/09/07 09:53:20;;;;;;;7.90;4.10;;;27.60;99.90;;;;;;5110740;28;20414;-76
2023/09/07 09:55:49;;;;;;;8.80;4.00;;;27.00;99.90;;;;;;5110075;28;20394;-77
2023/09/07 09:58:16;;;;;;;8.93;4.55;;;26.80;99.90;;;;;;5093168;28;20398;-77
2023/09/07 10:00:48;;;;;;;6.10;4.00;;;27.30;99.90;;;;;;5109758;28;20918;-77
2023/09/07 10:03:26;;;;;;;8.20;3.95;;;27.30;99.90;;;;;;5127271;27;20843;-77
2023/09/07 10:05:52;;;;;;;9.03;3.93;;;27.70;99.90;;;;;;5075965;28;20906;-78
2023/09/07 10:08:19;;;;;;;6.38;3.85;;;27.90;99.90;;;;;;5109757;28;20411;-77
2023/09/07 10:10:49;;;;;;;6.10;4.20;;;28.10;99.90;;;;;;5127149;27;20860;-77
2023/09/07 10:13:16;;;;;;;6.82;4.10;;;27.90;99.90;;;;;;5076018;28;20867;-77
2023/09/07 10:15:42;;;;;;;6.30;3.80;;;27.90;99.90;;;;;;5092603;28;20409;-77
2023/09/07 10:18:16;;;;;;;7.88;4.35;;;27.80;99.90;;;;;;5092479;28;20397;-77
2023/09/07 10:20:58;;;;;;;7.32;4.20;;;27.90;99.90;;;;;;5075861;28;20803;-77
2023/09/07 10:23:41;;;;;;;7.57;4.28;;;27.90;99.90;;;;;;5092445;28;20408;-77
2023/09/07 10:26:18;;;;;;;7.33;4.03;;;27.40;99.90;;;;;;5109744;28;20402;-76
2023/09/07 10:28:44;;;;;;;8.52;4.07;;;27.80;99.90;;;;;;5092164;28;20913;-76
2023/09/07 10:31:15;;;;;;;9.80;4.07;;;28.30;99.90;;;;;;5109636;28;20746;-76
2023/09/07 10:33:42;;;;;;;7.82;4.10;;;27.80;99.90;;;;;;5109208;28;20925;-76
2023/09/07 10:36:08;;;;;;;9.45;4.10;;;27.70;99.90;;;;;;5109181;28;20409;-76
2023/09/07 10:38:35;;;;;;;5.88;3.92;;;28.50;99.90;;;;;;5092211;28;20481;-76
2023/09/07 10:41:03;;;;;;;6.17;3.63;;;28.60;99.90;;;;;;5125295;27;20426;-77
2023/09/07 10:43:33;;;;;;;7.80;4.28;;;28.70;99.90;;;;;;5092580;28;20402;-76
2023/09/07 10:46:00;;;;;;;5.93;3.95;;;28.20;99.90;;;;;;5075604;28;20417;-76
2023/09/07 10:48:29;;;;;;;13.00;4.80;;;28.50;99.90;;;;;;5075160;28;20420;-75
2023/09/07 10:50:56;;;;;;;7.22;3.78;;;28.50;99.90;;;;;;5109277;28;20753;-77
2023/09/07 10:53:31;;;;;;;6.07;3.90;;;28.50;99.90;;;;;;5091715;28;20425;-78
2023/09/07 10:55:59;;;;;;;6.07;4.00;;;28.80;99.90;;;;;;5092502;28;20398;-76
2023/09/07 10:58:33;;;;;;;10.27;4.50;;;28.80;99.90;;;;;;5127087;27;20401;-76
2023/09/07 11:01:00;;;;;;;10.10;4.10;;;28.50;99.90;;;;;;5092162;28;20418;-77
2023/09/07 11:03:27;;;;;;;8.63;4.20;;;28.50;99.90;;;;;;5126826;27;20406;-77
2023/09/07 11:06:04;;;;;;;6.07;4.10;;;28.70;99.90;;;;;;5092774;28;20448;-77
2023/09/07 11:08:30;;;;;;;6.90;3.93;;;28.80;99.90;;;;;;5092672;28;20406;-76
2023/09/07 11:10:56;;;;;;;6.35;4.20;;;28.70;99.90;;;;;;5109787;28;20449;-76
2023/09/07 11:13:26;;;;;;;11.68;4.35;;;28.80;99.90;;;;;;5110160;28;20843;-77
2023/09/07 11:15:56;;;;;;;7.22;4.25;;;29.10;99.90;;;;;;5109903;28;20402;-76
2023/09/07 11:18:23;;;;;;;8.27;4.03;;;28.90;99.90;;;;;;5075727;28;20818;-76
2023/09/07 11:20:50;;;;;;;8.63;4.13;;;28.80;99.90;;;;;;5109774;28;20408;-76
2023/09/07 11:23:17;;;;;;;6.57;3.97;;;29.10;99.90;;;;;;5092539;28;20407;-77
2023/09/07 11:25:42;;;;;;;9.93;4.30;;;29.00;99.90;;;;;;5075455;28;20408;-75
2023/09/07 11:28:13;;;;;;;6.72;4.15;;;29.10;99.90;;;;;;5108715;28;20432;-77
2023/09/07 11:30:53;;;;;;;8.27;3.95;;;30.10;99.90;;;;;;5091897;28;20731;-77
2023/09/07 11:33:20;;;;;;;5.32;3.83;;;29.30;99.90;;;;;;5126380;27;20484;-76
2023/09/07 11:35:45;;;;;;;7.30;4.03;;;29.50;99.90;;;;;;5074937;28;20436;-77
2023/09/07 11:38:14;;;;;;;6.30;4.00;;;29.70;99.90;;;;;;5109432;28;20562;-77
2023/09/07 11:40:43;;;;;;;8.20;4.07;;;29.20;99.90;;;;;;5126153;27;20398;-77
2023/09/07 11:43:08;;;;;;;8.93;4.07;;;29.50;99.90;;;;;;5126522;27;20467;-77
2023/09/07 11:45:34;;;;;;;6.47;3.77;;;29.60;99.90;;;;;;5092101;28;20901;-77
2023/09/07 11:48:00;;;;;;;9.00;4.07;;;29.50;99.90;;;;;;5109111;28;20406;-77
2023/09/07 11:50:26;;;;;;;8.27;4.20;;;29.90;99.90;;;;;;5108732;28;20398;-76
2023/09/07 11:52:51;;;;;;;7.05;3.90;;;30.20;99.90;;;;;;5091762;28;20410;-77
2023/09/07 11:55:17;;;;;;;6.70;3.90;;;30.10;99.90;;;;;;5092374;28;20410;-76
2023/09/07 11:57:43;;;;;;;7.05;4.10;;;30.10;99.90;;;;;;5108858;28;20409;-75
2023/09/07 12:00:12;;;;;;;5.53;3.65;;;30.40;99.70;;;;;;5091690;28;20464;-75
2023/09/07 12:02:39;;;;;;;11.07;4.18;;;30.30;99.00;;;;;;5125703;27;20414;-77
2023/09/07 12:05:07;;;;;;;6.07;3.85;;;30.50;98.70;;;;;;5108803;28;20402;-77
2023/09/07 12:07:34;;;;;;;6.07;4.00;;;30.30;98.40;;;;;;5108784;28;20402;-77
2023/09/07 12:09:59;;;;;;;7.25;3.90;;;30.30;98.90;;;;;;5126207;27;20410;-77
2023/09/07 12:12:25;;;;;;;7.95;4.05;;;30.30;99.20;;;;;;5092064;28;20413;-76
2023/09/07 12:14:51;;;;;;;6.25;3.80;;;30.30;99.10;;;;;;5074886;28;20957;-76
2023/09/07 12:17:17;;;;;;;6.67;3.73;;;29.90;98.50;;;;;;5091931;28;20386;-77
2023/09/07 12:19:45;;;;;;;7.72;3.80;;;30.40;97.80;;;;;;5091641;28;20413;-76
2023/09/07 12:22:12;;;;;;;5.90;3.50;;;30.30;97.80;;;;;;5108387;28;20757;-76
2023/09/07 12:24:37;;;;;;;5.50;3.78;;;30.60;97.30;;;;;;5091710;28;20481;-75
2023/09/07 12:27:03;;;;;;;7.63;3.60;;;30.20;97.00;;;;;;5108128;28;20798;-77
2023/09/07 12:29:29;;;;;;;6.20;3.75;;;30.50;97.50;;;;;;5125887;27;20896;-77
2023/09/07 12:31:55;;;;;;;6.82;3.20;;;30.50;96.50;;;;;;5108987;28;20494;-76
2023/09/07 12:34:21;;;;;;;6.47;3.50;;;30.80;96.90;;;;;;5109092;28;20551;-77
2023/09/07 12:36:47;;;;;;;6.68;3.45;;;31.30;96.30;;;;;;5091758;28;20413;-77
2023/09/07 12:39:13;;;;;;;8.90;3.30;;;31.00;96.10;;;;;;5091371;28;20412;-77
2023/09/07 12:41:40;;;;;;;6.22;3.13;;;31.00;95.30;;;;;;5125542;27;20426;-77